createdAt,value
2018-04-28T00:00:04.842Z,13.40
2018-04-28T00:02:32.340Z,14.20
2018-04-28T00:04:59.858Z,13.20
2018-04-28T00:07:27.402Z,13.53
2018-04-28T00:09:55.231Z,13.33
2018-04-28T00:12:22.838Z,15.10
2018-04-28T00:14:50.379Z,13.27
2018-04-28T00:17:18.574Z,13.33
2018-04-28T00:19:47.772Z,11.87
2018-04-28T00:25:13.379Z,13.00
2018-04-28T00:27:42.754Z,12.63
2018-04-28T00:30:11.885Z,14.27
2018-04-28T00:32:39.401Z,14.47
2018-04-28T00:35:07.744Z,13.10
2018-04-28T00:37:50.136Z,13.27
2018-04-28T00:40:19.233Z,12.60
2018-04-28T00:43:04.204Z,12.97
2018-04-28T00:45:37.561Z,13.40
2018-04-28T00:51:26.421Z,13.20
2018-04-28T00:53:53.944Z,13.50
2018-04-28T00:56:22.352Z,12.90
2018-04-28T00:58:51.487Z,13.20
2018-04-28T01:04:27.368Z,13.13
2018-04-28T01:06:54.900Z,13.10
2018-04-28T01:09:23.266Z,13.47
2018-04-28T01:11:50.805Z,13.00
2018-04-28T01:14:30.114Z,13.53
2018-04-28T01:16:57.680Z,13.00
2018-04-28T01:19:25.993Z,13.20
2018-04-28T01:21:53.528Z,13.60
2018-04-28T01:27:39.569Z,13.70
2018-04-28T01:33:41.967Z,13.33
2018-04-28T01:36:31.024Z,13.40
2018-04-28T01:39:01.554Z,14.17
2018-04-28T01:44:48.689Z,13.67
2018-04-28T01:47:21.045Z,14.23
2018-04-28T01:49:49.487Z,13.67
2018-04-28T01:52:17.661Z,14.57
2018-04-28T01:58:00.915Z,14.57
2018-04-28T02:03:49.306Z,13.60
2018-04-28T02:06:19.698Z,13.70
2018-04-28T02:08:49.916Z,13.70
2018-04-28T02:11:21.827Z,13.90
2018-04-28T02:14:01.134Z,15.03
2018-04-28T02:16:34.463Z,13.97
2018-04-28T02:19:05.878Z,14.50
2018-04-28T02:21:40.116Z,14.37
2018-04-28T02:24:15.295Z,13.53
2018-04-28T02:26:44.788Z,14.20
2018-04-28T02:29:22.459Z,14.30
2018-04-28T02:32:02.621Z,14.37
2018-04-28T02:34:30.388Z,13.77
2018-04-28T02:37:30.264Z,14.37
2018-04-28T02:40:03.549Z,14.43
2018-04-28T02:42:37.780Z,14.03
2018-04-28T02:45:16.149Z,13.10
2018-04-28T02:47:45.946Z,14.10
2018-04-28T02:50:18.233Z,13.63
2018-04-28T02:56:08.606Z,13.43
2018-04-28T02:58:46.885Z,14.30
2018-04-28T03:04:21.993Z,14.07
2018-04-28T03:06:53.248Z,14.60
2018-04-28T03:09:22.343Z,13.33
2018-04-28T03:12:04.779Z,13.80
2018-04-28T03:14:33.120Z,14.23
2018-04-28T03:17:05.075Z,14.10
2018-04-28T03:19:54.227Z,14.70
2018-04-28T03:22:23.406Z,14.07
2018-04-28T03:24:55.364Z,14.50
2018-04-28T03:27:23.827Z,14.57
2018-04-28T03:29:52.142Z,14.40
2018-04-28T03:32:19.754Z,13.13
2018-04-28T03:34:47.288Z,12.80
2018-04-28T03:37:26.005Z,14.70
2018-04-28T03:39:56.323Z,14.70
2018-04-28T03:42:27.491Z,13.50
2018-04-28T03:45:03.666Z,14.57
2018-04-28T03:47:34.638Z,14.20
2018-04-28T03:50:02.138Z,13.53
2018-04-28T03:52:50.430Z,15.90
2018-04-28T03:55:27.855Z,14.60
2018-04-28T03:58:07.455Z,14.33
2018-04-28T04:00:47.094Z,14.57
2018-04-28T04:03:20.608Z,14.13
2018-04-28T04:09:01.182Z,13.80
2018-04-28T04:14:59.338Z,15.00
2018-04-28T04:20:49.578Z,13.37
2018-04-28T04:26:36.949Z,13.83
2018-04-28T04:29:18.891Z,14.47
2018-04-28T04:32:02.726Z,13.93
2018-04-28T04:37:30.256Z,14.23
2018-04-28T04:40:09.553Z,14.73
2018-04-28T04:42:43.826Z,13.63
2018-04-28T04:45:25.414Z,14.23
2018-04-28T04:51:24.941Z,14.67
2018-04-28T04:54:02.212Z,14.87
2018-04-28T04:56:41.550Z,14.73
2018-04-28T04:59:18.248Z,14.37
2018-04-28T05:02:17.178Z,14.97
2018-04-28T05:04:50.606Z,14.43
2018-04-28T05:10:20.040Z,14.03
2018-04-28T05:16:07.922Z,14.40
2018-04-28T05:18:39.172Z,16.17
2018-04-28T05:27:50.373Z,15.80
2018-04-28T05:33:30.843Z,14.63
2018-04-28T05:36:04.261Z,14.57
2018-04-28T05:38:37.777Z,14.70
2018-04-28T05:41:17.130Z,14.97
2018-04-28T05:46:46.526Z,13.90
2018-04-28T05:49:15.005Z,13.90
2018-04-28T05:52:01.122Z,13.07
2018-04-28T05:54:33.501Z,13.57
2018-04-28T06:00:11.771Z,13.97
2018-04-28T06:02:43.190Z,14.23
2018-04-28T06:05:23.027Z,12.70
2018-04-28T06:07:56.374Z,13.30
2018-04-28T06:10:24.871Z,14.03
2018-04-28T06:13:04.285Z,12.80
2018-04-28T06:15:38.337Z,13.70
2018-04-28T06:18:12.785Z,13.20
2018-04-28T06:20:41.229Z,13.63
2018-04-28T06:23:08.758Z,13.60
2018-04-28T06:25:36.592Z,14.00
2018-04-28T06:28:04.140Z,13.60
2018-04-28T06:30:31.670Z,13.87
2018-04-28T06:32:59.190Z,14.20
2018-04-28T06:35:26.709Z,14.63
2018-04-28T06:37:54.219Z,13.57
2018-04-28T06:40:22.059Z,13.03
2018-04-28T06:42:49.601Z,15.37
2018-04-28T06:45:17.101Z,13.40
2018-04-28T06:47:44.961Z,14.43
2018-04-28T06:50:12.501Z,13.53
2018-04-28T06:52:40.012Z,12.83
2018-04-28T06:55:07.535Z,13.50
2018-04-28T06:57:35.069Z,12.73
2018-04-28T07:00:02.850Z,13.73
2018-04-28T07:02:30.356Z,14.37
2018-04-28T07:04:57.885Z,14.00
2018-04-28T07:07:25.547Z,13.90
2018-04-28T07:09:53.178Z,13.97
2018-04-28T07:12:20.737Z,13.33
2018-04-28T07:14:48.259Z,13.80
2018-04-28T07:17:16.090Z,14.03
2018-04-28T07:19:43.654Z,13.50
2018-04-28T07:22:11.239Z,13.70
2018-04-28T07:24:38.766Z,13.87
2018-04-28T07:27:06.316Z,13.30
2018-04-28T07:29:33.835Z,13.60
2018-04-28T07:32:01.387Z,13.20
2018-04-28T07:34:28.974Z,13.23
2018-04-28T07:36:56.509Z,14.00
2018-04-28T07:39:24.304Z,13.50
2018-04-28T07:41:51.851Z,13.83
2018-04-28T07:44:19.374Z,13.40
2018-04-28T07:46:46.923Z,13.47
2018-04-28T07:49:14.674Z,14.77
2018-04-28T07:51:42.345Z,13.77
2018-04-28T07:54:09.907Z,13.23
2018-04-28T07:56:37.460Z,13.80
2018-04-28T07:59:04.983Z,12.77
2018-04-28T08:01:32.512Z,13.73
2018-04-28T08:04:00.125Z,12.80
2018-04-28T08:06:27.921Z,13.03
2018-04-28T08:08:56.310Z,13.17
2018-04-28T08:11:24.112Z,13.37
2018-04-28T08:13:51.705Z,12.73
2018-04-28T08:16:19.379Z,12.47
2018-04-28T08:18:46.935Z,12.90
2018-04-28T08:21:14.710Z,12.60
2018-04-28T08:23:42.287Z,12.20
2018-04-28T08:26:09.926Z,12.10
2018-04-28T08:28:37.531Z,12.67
2018-04-28T08:31:05.071Z,12.23
2018-04-28T08:33:32.612Z,12.40
2018-04-28T08:36:00.113Z,12.73
2018-04-28T08:38:27.636Z,12.07
2018-04-28T08:40:55.191Z,12.57
2018-04-28T08:43:22.727Z,11.53
2018-04-28T08:45:50.284Z,11.77
2018-04-28T08:48:17.889Z,11.80
2018-04-28T08:50:45.457Z,11.67
2018-04-28T08:53:12.981Z,11.50
2018-04-28T08:55:40.553Z,11.47
2018-04-28T08:58:08.090Z,10.93
2018-04-28T09:00:35.646Z,11.63
2018-04-28T09:03:03.201Z,11.10
2018-04-28T09:05:30.707Z,10.93
2018-04-28T09:07:58.229Z,10.77
2018-04-28T09:10:25.850Z,11.20
2018-04-28T09:12:53.383Z,10.50
2018-04-28T09:15:20.972Z,11.97
2018-04-28T09:17:48.579Z,10.70
2018-04-28T09:20:16.128Z,12.73
2018-04-28T09:22:43.767Z,11.23
2018-04-28T09:25:11.420Z,11.10
2018-04-28T09:27:39.021Z,11.53
2018-04-28T09:30:06.614Z,11.63
2018-04-28T09:32:34.193Z,10.63
2018-04-28T09:35:01.750Z,11.83
2018-04-28T09:37:29.368Z,11.67
2018-04-28T09:39:57.018Z,11.00
2018-04-28T09:42:24.595Z,12.37
2018-04-28T09:44:52.127Z,11.60
2018-04-28T09:47:19.737Z,11.70
2018-04-28T09:49:47.281Z,11.90
2018-04-28T09:52:14.834Z,11.40
2018-04-28T09:54:42.398Z,11.10
2018-04-28T09:57:09.958Z,11.90
2018-04-28T09:59:37.599Z,11.43
2018-04-28T10:02:10.851Z,12.40
2018-04-28T10:04:38.675Z,11.80
2018-04-28T10:07:06.306Z,11.50
2018-04-28T10:09:34.148Z,12.10
2018-04-28T10:12:01.793Z,10.97
2018-04-28T10:14:29.349Z,11.40
2018-04-28T10:16:56.957Z,11.43
2018-04-28T10:19:24.947Z,11.70
2018-04-28T10:21:52.551Z,11.17
2018-04-28T10:24:20.239Z,11.97
2018-04-28T10:26:48.486Z,11.73
2018-04-28T10:29:16.004Z,12.37
2018-04-28T10:31:43.663Z,12.03
2018-04-28T10:34:11.936Z,11.03
2018-04-28T10:36:39.512Z,11.40
2018-04-28T10:39:07.104Z,12.20
2018-04-28T10:41:34.760Z,10.90
2018-04-28T10:44:02.934Z,11.90
2018-04-28T10:46:30.597Z,11.17
2018-04-28T10:48:58.100Z,11.30
2018-04-28T10:51:25.653Z,11.40
2018-04-28T10:53:53.278Z,10.40
2018-04-28T10:56:20.811Z,10.70
2018-04-28T10:58:48.338Z,11.07
2018-04-28T11:01:15.846Z,11.40
2018-04-28T11:03:43.649Z,10.47
2018-04-28T11:06:11.168Z,10.83
2018-04-28T11:08:38.731Z,10.67
2018-04-28T11:11:06.241Z,15.57
2018-04-28T11:13:33.795Z,10.60
2018-04-28T11:16:01.368Z,9.83
2018-04-28T11:18:28.887Z,10.30
2018-04-28T11:20:56.462Z,10.20
2018-04-28T11:23:24.345Z,9.73
2018-04-28T11:25:52.120Z,10.23
2018-04-28T11:28:19.979Z,10.00
2018-04-28T11:30:47.586Z,10.17
2018-04-28T11:33:15.117Z,10.07
2018-04-28T11:35:42.676Z,10.80
2018-04-28T11:38:10.305Z,10.50
2018-04-28T11:40:37.749Z,10.00
2018-04-28T11:43:05.546Z,11.00
2018-04-28T11:45:33.076Z,10.47
2018-04-28T11:48:00.595Z,10.03
2018-04-28T11:50:28.431Z,9.90
2018-04-28T11:52:55.990Z,10.83
2018-04-28T11:55:23.560Z,10.00
2018-04-28T11:57:51.148Z,10.20
2018-04-28T12:00:18.666Z,9.97
2018-04-28T12:02:46.542Z,9.53
2018-04-28T12:05:14.346Z,9.67
2018-04-28T12:07:41.837Z,9.63
2018-04-28T12:10:09.354Z,9.30
2018-04-28T12:12:36.915Z,10.10
2018-04-28T12:15:04.475Z,9.60
2018-04-28T12:17:32.033Z,9.80
2018-04-28T12:19:59.579Z,9.83
2018-04-28T12:22:27.081Z,9.63
2018-04-28T12:24:54.594Z,9.47
2018-04-28T12:27:22.197Z,9.10
2018-04-28T12:29:49.743Z,8.60
2018-04-28T12:32:17.300Z,8.63
2018-04-28T12:34:44.839Z,9.47
2018-04-28T12:37:12.362Z,9.00
2018-04-28T12:39:39.888Z,9.70
2018-04-28T12:42:07.424Z,8.50
2018-04-28T12:44:34.926Z,9.13
2018-04-28T12:47:02.456Z,9.00
2018-04-28T12:49:30.043Z,9.33
2018-04-28T12:51:57.684Z,8.77
2018-04-28T12:54:25.554Z,8.70
2018-04-28T12:56:53.189Z,9.33
2018-04-28T12:59:20.731Z,8.80
2018-04-28T13:01:48.250Z,8.70
2018-04-28T13:04:16.077Z,8.97
2018-04-28T13:06:43.586Z,8.97
2018-04-28T13:09:11.101Z,8.97
2018-04-28T13:11:38.621Z,9.10
2018-04-28T13:14:06.167Z,8.70
2018-04-28T13:16:33.692Z,8.80
2018-04-28T13:19:01.263Z,8.47
2018-04-28T13:21:28.800Z,8.77
2018-04-28T13:23:56.321Z,8.60
2018-04-28T13:26:23.840Z,8.47
2018-04-28T13:28:51.367Z,8.73
2018-04-28T13:31:18.884Z,8.90
2018-04-28T13:33:46.405Z,8.40
2018-04-28T13:36:14.255Z,8.53
2018-04-28T13:38:41.770Z,8.50
2018-04-28T13:41:09.328Z,8.63
2018-04-28T13:43:36.859Z,8.23
2018-04-28T13:46:04.361Z,8.83
2018-04-28T13:48:31.897Z,8.93
2018-04-28T13:50:59.427Z,8.53
2018-04-28T13:53:26.973Z,8.80
2018-04-28T13:55:54.564Z,8.80
2018-04-28T13:58:22.050Z,9.40
2018-04-28T14:00:49.869Z,8.70
2018-04-28T14:03:17.401Z,8.50
2018-04-28T14:05:45.189Z,9.30
2018-04-28T14:08:12.959Z,8.77
2018-04-28T14:10:40.742Z,8.70
2018-04-28T14:13:08.258Z,8.70
2018-04-28T14:15:35.756Z,8.87
2018-04-28T14:18:03.304Z,8.70
2018-04-28T14:20:30.828Z,8.90
2018-04-28T14:22:58.343Z,8.60
2018-04-28T14:25:25.919Z,8.90
2018-04-28T14:27:53.436Z,8.90
2018-04-28T14:30:20.948Z,8.77
2018-04-28T14:32:48.485Z,9.10
2018-04-28T14:35:15.996Z,9.40
2018-04-28T14:37:43.521Z,9.63
2018-04-28T14:40:11.352Z,9.00
2018-04-28T14:42:41.495Z,8.80
2018-04-28T14:45:09.010Z,9.00
2018-04-28T14:47:36.586Z,8.77
2018-04-28T14:50:04.180Z,8.70
2018-04-28T14:52:31.696Z,8.83
2018-04-28T14:54:59.253Z,8.90
2018-04-28T14:57:26.760Z,8.90
2018-04-28T14:59:54.283Z,9.20
2018-04-28T15:02:22.201Z,9.27
2018-04-28T15:04:50.037Z,8.80
2018-04-28T15:07:17.549Z,8.77
2018-04-28T15:09:45.184Z,9.00
2018-04-28T15:12:12.634Z,9.40
2018-04-28T15:14:40.165Z,8.93
2018-04-28T15:17:07.741Z,9.13
2018-04-28T15:19:35.258Z,8.90
2018-04-28T15:22:02.775Z,8.93
2018-04-28T15:24:30.308Z,9.13
2018-04-28T15:26:57.893Z,8.60
2018-04-28T15:29:25.636Z,9.17
2018-04-28T15:31:53.252Z,9.50
2018-04-28T15:34:20.760Z,9.47
2018-04-28T15:36:48.285Z,9.30
2018-04-28T15:39:15.894Z,8.80
2018-04-28T15:41:43.657Z,9.50
2018-04-28T15:44:11.169Z,10.00
2018-04-28T15:46:38.690Z,9.00
2018-04-28T15:49:06.230Z,9.13
2018-04-28T15:51:33.749Z,8.40
2018-04-28T15:54:01.276Z,9.20
2018-04-28T15:56:28.888Z,9.60
2018-04-28T15:58:56.406Z,8.80
2018-04-28T16:01:23.937Z,8.80
2018-04-28T16:03:51.482Z,9.50
2018-04-28T16:06:18.988Z,8.80
2018-04-28T16:08:46.535Z,9.00
2018-04-28T16:11:14.382Z,9.17
2018-04-28T16:13:41.915Z,9.17
2018-04-28T16:16:09.707Z,9.67
2018-04-28T16:18:37.466Z,9.13
2018-04-28T16:21:05.238Z,9.60
2018-04-28T16:23:32.785Z,9.60
2018-04-28T16:26:00.313Z,8.67
2018-04-28T16:28:27.827Z,9.20
2018-04-28T16:30:55.433Z,8.70
2018-04-28T16:33:23.036Z,8.70
2018-04-28T16:35:50.491Z,8.90
2018-04-28T16:38:18.358Z,8.90
2018-04-28T16:40:45.853Z,8.57
2018-04-28T16:43:13.352Z,8.90
2018-04-28T16:45:40.885Z,9.70
2018-04-28T16:48:08.404Z,9.80
2018-04-28T16:50:35.924Z,8.90
2018-04-28T16:53:03.946Z,9.77
2018-04-28T16:55:31.444Z,8.70
2018-04-28T16:57:59.067Z,9.10
2018-04-28T17:00:27.029Z,8.70
2018-04-28T17:02:54.522Z,9.00
2018-04-28T17:05:22.057Z,8.67
2018-04-28T17:07:49.606Z,8.67
2018-04-28T17:10:17.177Z,8.60
2018-04-28T17:12:44.678Z,8.67
2018-04-28T17:15:12.194Z,8.60
2018-04-28T17:17:51.421Z,8.83
2018-04-28T17:20:19.417Z,8.83
2018-04-28T17:22:46.925Z,8.60
2018-04-28T17:25:14.454Z,9.10
2018-04-28T17:27:42.275Z,8.53
2018-04-28T17:30:09.773Z,8.87
2018-04-28T17:32:37.276Z,9.03
2018-04-28T17:35:04.812Z,9.10
2018-04-28T17:37:33.339Z,9.33
2018-04-28T17:40:00.841Z,9.20
2018-04-28T17:42:28.454Z,8.90
2018-04-28T17:44:55.993Z,9.10
2018-04-28T17:47:23.496Z,9.40
2018-04-28T17:49:51.249Z,9.23
2018-04-28T17:52:19.125Z,9.13
2018-04-28T17:54:46.620Z,9.37
2018-04-28T17:57:14.494Z,9.07
2018-04-28T17:59:42.011Z,10.13
2018-04-28T18:02:09.581Z,11.47
2018-04-28T18:04:37.121Z,10.40
2018-04-28T18:07:04.617Z,9.97
2018-04-28T18:09:32.121Z,10.70
2018-04-28T18:11:59.727Z,10.10
2018-04-28T18:14:27.227Z,10.60
2018-04-28T18:16:54.761Z,10.23
2018-04-28T18:19:22.284Z,10.07
2018-04-28T18:21:49.799Z,10.10
2018-04-28T18:24:17.407Z,9.93
2018-04-28T18:26:44.993Z,10.00
2018-04-28T18:29:12.489Z,9.90
2018-04-28T18:31:40.286Z,9.77
2018-04-28T18:34:07.856Z,10.10
2018-04-28T18:36:35.448Z,10.80
2018-04-28T18:39:03.008Z,9.77
2018-04-28T18:41:30.569Z,10.37
2018-04-28T18:43:58.168Z,10.37
2018-04-28T18:46:25.730Z,9.70
2018-04-28T18:48:53.620Z,10.10
2018-04-28T18:51:21.128Z,10.10
2018-04-28T18:53:48.650Z,10.20
2018-04-28T18:56:16.181Z,10.17
2018-04-28T18:58:43.727Z,10.00
2018-04-28T19:01:11.312Z,9.83
2018-04-28T19:03:38.974Z,10.17
2018-04-28T19:06:06.576Z,10.17
2018-04-28T19:08:34.122Z,10.43
2018-04-28T19:11:01.673Z,10.63
2018-04-28T19:13:29.261Z,10.30
2018-04-28T19:15:57.220Z,9.80
2018-04-28T19:18:24.815Z,10.00
2018-04-28T19:20:52.491Z,9.73
2018-04-28T19:23:19.999Z,9.90
2018-04-28T19:25:47.560Z,11.20
2018-04-28T19:28:15.137Z,9.73
2018-04-28T19:30:42.651Z,10.53
2018-04-28T19:33:10.192Z,9.90
2018-04-28T19:35:37.702Z,10.50
2018-04-28T19:38:05.243Z,10.80
2018-04-28T19:40:32.809Z,10.37
2018-04-28T19:43:00.592Z,11.17
2018-04-28T19:45:28.161Z,11.30
2018-04-28T19:47:55.742Z,10.90
2018-04-28T19:50:24.399Z,11.10
2018-04-28T19:52:51.971Z,11.20
2018-04-28T19:55:19.577Z,10.30
2018-04-28T19:57:47.163Z,10.63
2018-04-28T20:00:14.703Z,10.90
2018-04-28T20:02:42.257Z,11.17
2018-04-28T20:05:10.385Z,11.23
2018-04-28T20:07:38.034Z,10.90
2018-04-28T20:10:05.660Z,10.80
2018-04-28T20:12:33.194Z,11.63
2018-04-28T20:15:01.004Z,10.70
2018-04-28T20:17:32.376Z,11.30
2018-04-28T20:19:59.914Z,11.87
2018-04-28T20:22:39.199Z,11.80
2018-04-28T20:25:18.723Z,10.50
2018-04-28T20:27:46.281Z,10.30
2018-04-28T20:30:14.278Z,11.23
2018-04-28T20:32:41.808Z,11.10
2018-04-28T20:35:09.393Z,10.80
2018-04-28T20:37:37.017Z,10.30
2018-04-28T20:40:04.581Z,11.03
2018-04-28T20:42:32.383Z,11.07
2018-04-28T20:44:59.962Z,10.57
2018-04-28T20:47:27.639Z,10.53
2018-04-28T20:49:55.274Z,11.00
2018-04-28T20:52:23.094Z,10.73
2018-04-28T20:54:50.771Z,11.03
2018-04-28T20:57:18.369Z,10.50
2018-04-28T20:59:46.208Z,10.70
2018-04-28T21:02:13.742Z,11.17
2018-04-28T21:04:41.335Z,11.47
2018-04-28T21:07:08.866Z,10.70
2018-04-28T21:09:36.559Z,11.43
2018-04-28T21:12:04.177Z,10.50
2018-04-28T21:14:31.739Z,11.70
2018-04-28T21:16:59.348Z,11.80
2018-04-28T21:19:26.911Z,42.13
2018-04-28T21:21:54.460Z,27.10
2018-04-28T21:24:22.056Z,12.33
2018-04-28T21:26:49.626Z,11.37
2018-04-28T21:29:17.673Z,11.93
2018-04-28T21:31:45.176Z,12.27
2018-04-28T21:34:12.966Z,12.37
2018-04-28T21:36:40.555Z,12.30
2018-04-28T21:39:08.080Z,12.20
2018-04-28T21:41:35.622Z,12.00
2018-04-28T21:44:03.146Z,12.07
2018-04-28T21:46:30.699Z,12.00
2018-04-28T21:48:58.246Z,12.10
2018-04-28T21:51:25.768Z,11.60
2018-04-28T21:53:53.280Z,12.33
2018-04-28T21:56:20.834Z,12.83
2018-04-28T21:58:48.378Z,11.90
2018-04-28T22:01:15.881Z,12.80
2018-04-28T22:03:43.410Z,12.83
2018-04-28T22:06:11.163Z,12.90
2018-04-28T22:08:38.734Z,12.30
2018-04-28T22:11:06.267Z,12.27
2018-04-28T22:13:33.793Z,13.00
2018-04-28T22:16:02.013Z,13.20
2018-04-28T22:18:29.576Z,12.60
2018-04-28T22:20:57.095Z,12.67
2018-04-28T22:23:24.618Z,11.60
2018-04-28T22:25:52.455Z,13.30
2018-04-28T22:28:19.965Z,11.93
2018-04-28T22:30:47.507Z,12.53
2018-04-28T22:33:15.337Z,11.97
2018-04-28T22:35:43.599Z,11.60
2018-04-28T22:38:11.143Z,11.87
2018-04-28T22:40:38.705Z,12.23
2018-04-28T22:43:06.230Z,11.87
2018-04-28T22:45:33.737Z,12.00
2018-04-28T22:48:01.283Z,11.50
2018-04-28T22:50:29.155Z,12.03
2018-04-28T22:52:56.663Z,11.30
2018-04-28T22:55:24.202Z,12.00
2018-04-28T22:57:51.707Z,11.37
2018-04-28T23:00:22.898Z,11.53
2018-04-28T23:02:50.446Z,11.43
2018-04-28T23:05:18.266Z,11.93
2018-04-28T23:07:45.784Z,12.10
2018-04-28T23:10:13.317Z,11.67
2018-04-28T23:12:40.845Z,12.10
2018-04-28T23:15:08.389Z,11.33
2018-04-28T23:17:35.904Z,11.80
2018-04-28T23:20:03.521Z,12.00
2018-04-28T23:22:31.361Z,11.43
2018-04-28T23:24:58.918Z,11.83
2018-04-28T23:27:26.486Z,11.30
2018-04-28T23:29:54.008Z,12.30
2018-04-28T23:32:21.580Z,11.80
2018-04-28T23:34:49.129Z,11.60
2018-04-28T23:37:16.651Z,12.90
2018-04-28T23:39:44.197Z,11.80
2018-04-28T23:42:11.707Z,11.87
2018-04-28T23:44:39.209Z,11.67
2018-04-28T23:47:06.736Z,12.30
2018-04-28T23:49:34.259Z,11.60
2018-04-28T23:52:01.767Z,11.87
2018-04-28T23:54:29.301Z,11.57
2018-04-28T23:56:56.821Z,12.10
2018-04-28T23:59:24.330Z,11.10
